sensor_id;sensor_type;location;lat;lon;timestamp;pressure;altitude;pressure_sealevel;temperature;humidity
65127;BME280;51927;49.080;19.652;2023-01-04T00:00:03;95586.19;;;22.37;45.53
65127;BME280;51927;49.080;19.652;2023-01-04T00:00:08;95583.50;;;22.37;45.38
65127;BME280;51927;49.080;19.652;2023-01-04T00:00:14;95594.19;;;22.37;45.66
65127;BME280;51927;49.080;19.652;2023-01-04T00:00:19;95590.72;;;22.36;45.65
65127;BME280;51927;49.080;19.652;2023-01-04T00:00:24;95586.19;;;22.37;45.59
65127;BME280;51927;49.080;19.652;2023-01-04T00:00:29;95583.78;;;22.35;45.66
65127;BME280;51927;49.080;19.652;2023-01-04T00:00:35;95587.25;;;22.36;45.46
65127;BME280;51927;49.080;19.652;2023-01-04T00:00:40;95596.84;;;22.37;45.36
65127;BME280;51927;49.080;19.652;2023-01-04T00:00:45;95586.19;;;22.37;45.56
65127;BME280;51927;49.080;19.652;2023-01-04T00:00:50;95588.84;;;22.37;45.40
65127;BME280;51927;49.080;19.652;2023-01-04T00:00:59;95578.44;;;22.35;45.53
65127;BME280;51927;49.080;19.652;2023-01-04T00:01:05;95579.25;;;22.36;45.29
65127;BME280;51927;49.080;19.652;2023-01-04T00:01:12;95580.06;;;22.36;45.41
65127;BME280;51927;49.080;19.652;2023-01-04T00:01:18;95580.06;;;22.36;45.40
65127;BME280;51927;49.080;19.652;2023-01-04T00:01:24;95587.25;;;22.36;45.37
65127;BME280;51927;49.080;19.652;2023-01-04T00:01:29;95585.38;;;22.36;45.60
65127;BME280;51927;49.080;19.652;2023-01-04T00:01:34;95581.63;;;22.37;45.35
65127;BME280;51927;49.080;19.652;2023-01-04T00:01:39;95584.56;;;22.36;45.55
65127;BME280;51927;49.080;19.652;2023-01-04T00:01:44;95586.19;;;22.37;45.35
65127;BME280;51927;49.080;19.652;2023-01-04T00:01:49;95577.38;;;22.36;45.59
65127;BME280;51927;49.080;19.652;2023-01-04T00:01:55;95580.84;;;22.37;45.56
65127;BME280;51927;49.080;19.652;2023-01-04T00:02:00;95578.97;;;22.37;45.56
65127;BME280;51927;49.080;19.652;2023-01-04T00:02:05;95581.63;;;22.37;45.31
65127;BME280;51927;49.080;19.652;2023-01-04T00:02:10;95580.84;;;22.37;45.47
65127;BME280;51927;49.080;19.652;2023-01-04T00:02:15;95580.06;;;22.36;45.56
65127;BME280;51927;49.080;19.652;2023-01-04T00:02:21;95578.97;;;22.37;45.29
65127;BME280;51927;49.080;19.652;2023-01-04T00:02:26;95578.16;;;22.37;45.38
65127;BME280;51927;49.080;19.652;2023-01-04T00:02:32;95582.44;;;22.38;45.51
65127;BME280;51927;49.080;19.652;2023-01-04T00:02:37;95583.22;;;22.38;45.22
65127;BME280;51927;49.080;19.652;2023-01-04T00:02:42;95587.78;;;22.38;45.22
65127;BME280;51927;49.080;19.652;2023-01-04T00:02:47;95578.97;;;22.37;45.53
65127;BME280;51927;49.080;19.652;2023-01-04T00:02:52;95581.63;;;22.37;45.51
65127;BME280;51927;49.080;19.652;2023-01-04T00:02:57;95578.97;;;22.37;45.36
65127;BME280;51927;49.080;19.652;2023-01-04T00:03:03;95573.63;;;22.37;45.28
65127;BME280;51927;49.080;19.652;2023-01-04T00:03:08;95585.13;;;22.38;45.47
65127;BME280;51927;49.080;19.652;2023-01-04T00:03:13;95578.97;;;22.37;45.51
65127;BME280;51927;49.080;19.652;2023-01-04T00:03:18;95581.63;;;22.37;45.29
65127;BME280;51927;49.080;19.652;2023-01-04T00:03:23;95582.44;;;22.38;45.27
65127;BME280;51927;49.080;19.652;2023-01-04T00:03:28;95576.28;;;22.37;45.42
65127;BME280;51927;49.080;19.652;2023-01-04T00:03:35;95585.13;;;22.38;45.22
65127;BME280;51927;49.080;19.652;2023-01-04T00:03:41;95580.06;;;22.36;45.43
65127;BME280;51927;49.080;19.652;2023-01-04T00:03:46;95578.97;;;22.37;45.13
65127;BME280;51927;49.080;19.652;2023-01-04T00:03:51;95572.84;;;22.37;45.56
65127;BME280;51927;49.080;19.652;2023-01-04T00:03:56;95574.72;;;22.36;45.66
65127;BME280;51927;49.080;19.652;2023-01-04T00:04:01;95586.19;;;22.37;45.62
65127;BME280;51927;49.080;19.652;2023-01-04T00:04:07;95581.13;;;22.35;45.49
65127;BME280;51927;49.080;19.652;2023-01-04T00:04:13;95580.06;;;22.36;45.54
65127;BME280;51927;49.080;19.652;2023-01-04T00:04:18;95580.06;;;22.36;45.45
65127;BME280;51927;49.080;19.652;2023-01-04T00:04:23;95580.06;;;22.36;45.36
65127;BME280;51927;49.080;19.652;2023-01-04T00:04:28;95584.56;;;22.36;45.52
65127;BME280;51927;49.080;19.652;2023-01-04T00:04:34;95576.56;;;22.36;45.48
65127;BME280;51927;49.080;19.652;2023-01-04T00:04:39;95581.91;;;22.36;45.63
65127;BME280;51927;49.080;19.652;2023-01-04T00:04:44;95580.06;;;22.36;45.52
65127;BME280;51927;49.080;19.652;2023-01-04T00:04:49;95585.38;;;22.36;45.72
65127;BME280;51927;49.080;19.652;2023-01-04T00:04:54;95580.06;;;22.36;45.60
65127;BME280;51927;49.080;19.652;2023-01-04T00:04:59;95578.44;;;22.35;45.62
65127;BME280;51927;49.080;19.652;2023-01-04T00:05:05;95576.56;;;22.36;45.33
65127;BME280;51927;49.080;19.652;2023-01-04T00:05:10;95577.38;;;22.36;45.58
65127;BME280;51927;49.080;19.652;2023-01-04T00:05:15;95578.44;;;22.35;45.33
65127;BME280;51927;49.080;19.652;2023-01-04T00:05:20;95578.44;;;22.35;45.32
65127;BME280;51927;49.080;19.652;2023-01-04T00:05:26;95578.44;;;22.35;45.35
65127;BME280;51927;49.080;19.652;2023-01-04T00:05:31;95581.13;;;22.35;45.53
65127;BME280;51927;49.080;19.652;2023-01-04T00:05:36;95573.13;;;22.35;45.43
65127;BME280;51927;49.080;19.652;2023-01-04T00:05:41;95576.56;;;22.36;45.63
65127;BME280;51927;49.080;19.652;2023-01-04T00:05:46;95576.56;;;22.36;45.56
65127;BME280;51927;49.080;19.652;2023-01-04T00:05:51;95573.91;;;22.36;45.60
65127;BME280;51927;49.080;19.652;2023-01-04T00:05:57;95580.06;;;22.36;45.53
65127;BME280;51927;49.080;19.652;2023-01-04T00:06:03;95580.06;;;22.36;45.47
65127;BME280;51927;49.080;19.652;2023-01-04T00:06:10;95577.38;;;22.36;45.58
65127;BME280;51927;49.080;19.652;2023-01-04T00:06:16;95581.91;;;22.36;45.59
65127;BME280;51927;49.080;19.652;2023-01-04T00:06:21;95575.78;;;22.35;45.69
65127;BME280;51927;49.080;19.652;2023-01-04T00:06:26;95580.06;;;22.36;45.67
65127;BME280;51927;49.080;19.652;2023-01-04T00:06:32;95575.50;;;22.37;45.60
65127;BME280;51927;49.080;19.652;2023-01-04T00:06:37;95578.16;;;22.37;45.69
65127;BME280;51927;49.080;19.652;2023-01-04T00:06:42;95582.44;;;22.38;45.63
65127;BME280;51927;49.080;19.652;2023-01-04T00:06:47;95578.16;;;22.37;45.48
65127;BME280;51927;49.080;19.652;2023-01-04T00:06:52;95581.63;;;22.37;45.32
65127;BME280;51927;49.080;19.652;2023-01-04T00:06:58;95580.06;;;22.36;45.53
65127;BME280;51927;49.080;19.652;2023-01-04T00:07:03;95585.38;;;22.36;45.48
65127;BME280;51927;49.080;19.652;2023-01-04T00:07:08;95580.06;;;22.36;45.78
65127;BME280;51927;49.080;19.652;2023-01-04T00:07:13;95578.44;;;22.35;45.78
65127;BME280;51927;49.080;19.652;2023-01-04T00:07:19;95580.06;;;22.36;45.55
65127;BME280;51927;49.080;19.652;2023-01-04T00:07:24;95576.28;;;22.37;45.47
65127;BME280;51927;49.080;19.652;2023-01-04T00:07:29;95579.25;;;22.36;45.73
65127;BME280;51927;49.080;19.652;2023-01-04T00:07:35;95581.63;;;22.37;45.51
65127;BME280;51927;49.080;19.652;2023-01-04T00:07:40;95573.91;;;22.36;45.73
65127;BME280;51927;49.080;19.652;2023-01-04T00:07:45;95580.06;;;22.36;45.62
65127;BME280;51927;49.080;19.652;2023-01-04T00:07:50;95578.16;;;22.37;45.56
65127;BME280;51927;49.080;19.652;2023-01-04T00:07:56;95579.25;;;22.36;45.66
65127;BME280;51927;49.080;19.652;2023-01-04T00:08:02;95584.56;;;22.36;45.63
65127;BME280;51927;49.080;19.652;2023-01-04T00:08:07;95579.25;;;22.36;45.50
65127;BME280;51927;49.080;19.652;2023-01-04T00:08:12;95580.84;;;22.37;45.55
65127;BME280;51927;49.080;19.652;2023-01-04T00:08:18;95585.38;;;22.36;45.74
65127;BME280;51927;49.080;19.652;2023-01-04T00:08:23;95587.25;;;22.36;45.62
65127;BME280;51927;49.080;19.652;2023-01-04T00:08:28;95580.06;;;22.36;45.40
65127;BME280;51927;49.080;19.652;2023-01-04T00:08:34;95586.19;;;22.37;45.43
65127;BME280;51927;49.080;19.652;2023-01-04T00:08:39;95582.72;;;22.36;45.74
65127;BME280;51927;49.080;19.652;2023-01-04T00:08:45;95579.25;;;22.36;45.59
65127;BME280;51927;49.080;19.652;2023-01-04T00:08:50;95582.72;;;22.36;45.66
65127;BME280;51927;49.080;19.652;2023-01-04T00:08:55;95579.25;;;22.36;45.68
65127;BME280;51927;49.080;19.652;2023-01-04T00:09:00;95574.72;;;22.36;45.69
65127;BME280;51927;49.080;19.652;2023-01-04T00:09:05;95579.25;;;22.36;45.72
65127;BME280;51927;49.080;19.652;2023-01-04T00:09:11;95585.38;;;22.36;45.68
65127;BME280;51927;49.080;19.652;2023-01-04T00:09:17;95577.38;;;22.36;45.66
65127;BME280;51927;49.080;19.652;2023-01-04T00:09:22;95586.47;;;22.35;45.70
65127;BME280;51927;49.080;19.652;2023-01-04T00:09:27;95574.72;;;22.36;45.56
65127;BME280;51927;49.080;19.652;2023-01-04T00:09:32;95581.91;;;22.36;45.70
65127;BME280;51927;49.080;19.652;2023-01-04T00:09:37;95576.84;;;22.34;45.68
65127;BME280;51927;49.080;19.652;2023-01-04T00:09:43;95583.00;;;22.35;45.68
65127;BME280;51927;49.080;19.652;2023-01-04T00:09:48;95581.91;;;22.36;45.75
65127;BME280;51927;49.080;19.652;2023-01-04T00:09:53;95579.25;;;22.36;45.62
65127;BME280;51927;49.080;19.652;2023-01-04T00:09:59;95580.06;;;22.36;45.67
65127;BME280;51927;49.080;19.652;2023-01-04T00:10:04;95576.28;;;22.37;45.36
65127;BME280;51927;49.080;19.652;2023-01-04T00:10:09;95580.84;;;22.37;45.41
65127;BME280;51927;49.080;19.652;2023-01-04T00:10:14;95578.16;;;22.37;45.73
65127;BME280;51927;49.080;19.652;2023-01-04T00:10:19;95574.72;;;22.36;45.49
65127;BME280;51927;49.080;19.652;2023-01-04T00:10:25;95584.28;;;22.37;45.52
65127;BME280;51927;49.080;19.652;2023-01-04T00:10:30;95575.50;;;22.37;45.69
65127;BME280;51927;49.080;19.652;2023-01-04T00:10:35;95580.84;;;22.37;45.45
65127;BME280;51927;49.080;19.652;2023-01-04T00:10:40;95580.06;;;22.36;45.76
65127;BME280;51927;49.080;19.652;2023-01-04T00:10:45;95579.25;;;22.36;45.43
65127;BME280;51927;49.080;19.652;2023-01-04T00:10:50;95574.72;;;22.36;45.69
65127;BME280;51927;49.080;19.652;2023-01-04T00:11:02;95582.72;;;22.36;45.60
65127;BME280;51927;49.080;19.652;2023-01-04T00:11:10;95586.97;;;22.37;45.68
65127;BME280;51927;49.080;19.652;2023-01-04T00:11:17;95582.72;;;22.36;45.67
65127;BME280;51927;49.080;19.652;2023-01-04T00:11:23;95581.63;;;22.37;45.48
65127;BME280;51927;49.080;19.652;2023-01-04T00:11:28;95581.63;;;22.37;45.26
65127;BME280;51927;49.080;19.652;2023-01-04T00:11:34;95577.38;;;22.36;45.46
65127;BME280;51927;49.080;19.652;2023-01-04T00:11:39;95579.78;;;22.38;45.51
65127;BME280;51927;49.080;19.652;2023-01-04T00:11:44;95578.97;;;22.37;45.73
65127;BME280;51927;49.080;19.652;2023-01-04T00:11:49;95579.78;;;22.38;45.75
65127;BME280;51927;49.080;19.652;2023-01-04T00:11:54;95577.91;;;22.38;45.73
65127;BME280;51927;49.080;19.652;2023-01-04T00:11:59;95581.63;;;22.37;45.45
65127;BME280;51927;49.080;19.652;2023-01-04T00:12:05;95576.28;;;22.37;45.77
65127;BME280;51927;49.080;19.652;2023-01-04T00:12:10;95581.63;;;22.37;45.65
65127;BME280;51927;49.080;19.652;2023-01-04T00:12:15;95575.50;;;22.37;45.68
65127;BME280;51927;49.080;19.652;2023-01-04T00:12:20;95582.72;;;22.36;45.45
65127;BME280;51927;49.080;19.652;2023-01-04T00:12:26;95578.16;;;22.37;45.58
65127;BME280;51927;49.080;19.652;2023-01-04T00:12:31;95580.06;;;22.36;45.36
65127;BME280;51927;49.080;19.652;2023-01-04T00:12:36;95574.72;;;22.36;45.38
65127;BME280;51927;49.080;19.652;2023-01-04T00:12:41;95582.72;;;22.36;45.61
65127;BME280;51927;49.080;19.652;2023-01-04T00:12:46;95580.06;;;22.36;45.54
65127;BME280;51927;49.080;19.652;2023-01-04T00:12:51;95573.91;;;22.36;45.62
65127;BME280;51927;49.080;19.652;2023-01-04T00:12:57;95580.06;;;22.36;45.62
65127;BME280;51927;49.080;19.652;2023-01-04T00:13:03;95574.72;;;22.36;45.54
65127;BME280;51927;49.080;19.652;2023-01-04T00:13:08;95580.06;;;22.36;45.48
65127;BME280;51927;49.080;19.652;2023-01-04T00:13:13;95578.16;;;22.37;45.69
65127;BME280;51927;49.080;19.652;2023-01-04T00:13:18;95578.44;;;22.35;45.49
65127;BME280;51927;49.080;19.652;2023-01-04T00:13:24;95582.72;;;22.36;45.47
65127;BME280;51927;49.080;19.652;2023-01-04T00:13:29;95577.38;;;22.36;45.47
65127;BME280;51927;49.080;19.652;2023-01-04T00:13:34;95574.72;;;22.36;45.35
65127;BME280;51927;49.080;19.652;2023-01-04T00:13:40;95582.72;;;22.36;45.38
65127;BME280;51927;49.080;19.652;2023-01-04T00:13:45;95582.72;;;22.36;45.65
65127;BME280;51927;49.080;19.652;2023-01-04T00:13:51;95578.16;;;22.37;45.59
65127;BME280;51927;49.080;19.652;2023-01-04T00:13:57;95573.91;;;22.36;45.45
65127;BME280;51927;49.080;19.652;2023-01-04T00:14:03;95567.78;;;22.35;45.50
65127;BME280;51927;49.080;19.652;2023-01-04T00:14:08;95580.06;;;22.36;45.46
65127;BME280;51927;49.080;19.652;2023-01-04T00:14:14;95581.91;;;22.36;45.66
65127;BME280;51927;49.080;19.652;2023-01-04T00:14:22;95583.50;;;22.37;45.65
65127;BME280;51927;49.080;19.652;2023-01-04T00:14:27;95578.44;;;22.35;45.46
65127;BME280;51927;49.080;19.652;2023-01-04T00:14:32;95577.38;;;22.36;45.67
65127;BME280;51927;49.080;19.652;2023-01-04T00:14:38;95580.84;;;22.37;45.43
65127;BME280;51927;49.080;19.652;2023-01-04T00:14:43;95578.44;;;22.35;45.62
65127;BME280;51927;49.080;19.652;2023-01-04T00:14:48;95578.97;;;22.37;45.75
65127;BME280;51927;49.080;19.652;2023-01-04T00:14:53;95580.06;;;22.36;45.63
65127;BME280;51927;49.080;19.652;2023-01-04T00:14:58;95580.06;;;22.36;45.87
65127;BME280;51927;49.080;19.652;2023-01-04T00:15:04;95573.91;;;22.36;45.80
65127;BME280;51927;49.080;19.652;2023-01-04T00:15:09;95575.50;;;22.37;45.66
65127;BME280;51927;49.080;19.652;2023-01-04T00:15:14;95575.78;;;22.35;45.67
65127;BME280;51927;49.080;19.652;2023-01-04T00:15:19;95572.84;;;22.37;45.86
65127;BME280;51927;49.080;19.652;2023-01-04T00:15:24;95576.28;;;22.37;45.59
65127;BME280;51927;49.080;19.652;2023-01-04T00:15:30;95578.97;;;22.37;45.93
65127;BME280;51927;49.080;19.652;2023-01-04T00:15:35;95570.16;;;22.37;45.96
65127;BME280;51927;49.080;19.652;2023-01-04T00:15:40;95572.84;;;22.37;45.92
65127;BME280;51927;49.080;19.652;2023-01-04T00:15:45;95572.84;;;22.37;45.55
65127;BME280;51927;49.080;19.652;2023-01-04T00:15:50;95582.44;;;22.38;45.81
65127;BME280;51927;49.080;19.652;2023-01-04T00:15:56;95576.28;;;22.37;45.85
65127;BME280;51927;49.080;19.652;2023-01-04T00:16:05;95578.97;;;22.37;45.84
65127;BME280;51927;49.080;19.652;2023-01-04T00:16:12;95578.97;;;22.37;45.42
65127;BME280;51927;49.080;19.652;2023-01-04T00:16:22;95575.50;;;22.37;45.67
65127;BME280;51927;49.080;19.652;2023-01-04T00:16:27;95578.16;;;22.37;45.48
65127;BME280;51927;49.080;19.652;2023-01-04T00:16:33;95579.78;;;22.38;45.66
65127;BME280;51927;49.080;19.652;2023-01-04T00:16:38;95577.09;;;22.38;45.73
65127;BME280;51927;49.080;19.652;2023-01-04T00:16:43;95573.63;;;22.37;45.65
65127;BME280;51927;49.080;19.652;2023-01-04T00:16:48;95573.63;;;22.37;45.82
65127;BME280;51927;49.080;19.652;2023-01-04T00:16:53;95575.22;;;22.38;45.64
65127;BME280;51927;49.080;19.652;2023-01-04T00:16:59;95578.97;;;22.37;45.81
65127;BME280;51927;49.080;19.652;2023-01-04T00:17:04;95579.78;;;22.38;45.75
65127;BME280;51927;49.080;19.652;2023-01-04T00:17:09;95577.09;;;22.38;45.84
65127;BME280;51927;49.080;19.652;2023-01-04T00:17:14;95575.50;;;22.37;45.85
65127;BME280;51927;49.080;19.652;2023-01-04T00:17:19;95577.09;;;22.38;45.81
65127;BME280;51927;49.080;19.652;2023-01-04T00:17:24;95577.09;;;22.38;45.86
65127;BME280;51927;49.080;19.652;2023-01-04T00:17:29;95573.63;;;22.37;45.79
65127;BME280;51927;49.080;19.652;2023-01-04T00:17:35;95582.44;;;22.38;45.85
65127;BME280;51927;49.080;19.652;2023-01-04T00:17:40;95576.28;;;22.37;45.59
65127;BME280;51927;49.080;19.652;2023-01-04T00:17:45;95575.50;;;22.37;45.50
65127;BME280;51927;49.080;19.652;2023-01-04T00:17:50;95575.50;;;22.37;45.83
65127;BME280;51927;49.080;19.652;2023-01-04T00:17:56;95576.28;;;22.37;45.64
65127;BME280;51927;49.080;19.652;2023-01-04T00:18:01;95575.50;;;22.37;45.69
65127;BME280;51927;49.080;19.652;2023-01-04T00:18:06;95575.50;;;22.37;45.59
65127;BME280;51927;49.080;19.652;2023-01-04T00:18:11;95575.50;;;22.37;45.89
65127;BME280;51927;49.080;19.652;2023-01-04T00:18:18;95575.50;;;22.37;45.74
65127;BME280;51927;49.080;19.652;2023-01-04T00:18:23;95573.13;;;22.35;45.85
65127;BME280;51927;49.080;19.652;2023-01-04T00:18:29;95572.06;;;22.36;45.79
65127;BME280;51927;49.080;19.652;2023-01-04T00:18:35;95570.94;;;22.37;45.92
65127;BME280;51927;49.080;19.652;2023-01-04T00:18:41;95578.97;;;22.37;45.77
65127;BME280;51927;49.080;19.652;2023-01-04T00:18:46;95578.16;;;22.37;45.71
65127;BME280;51927;49.080;19.652;2023-01-04T00:18:52;95576.28;;;22.37;45.71
65127;BME280;51927;49.080;19.652;2023-01-04T00:18:58;95576.28;;;22.37;45.81
65127;BME280;51927;49.080;19.652;2023-01-04T00:19:03;95572.84;;;22.37;45.93
65127;BME280;51927;49.080;19.652;2023-01-04T00:19:09;95573.63;;;22.37;45.64
65127;BME280;51927;49.080;19.652;2023-01-04T00:19:14;95573.63;;;22.37;45.64
65127;BME280;51927;49.080;19.652;2023-01-04T00:19:19;95568.56;;;22.36;45.93
65127;BME280;51927;49.080;19.652;2023-01-04T00:19:25;95575.50;;;22.37;45.89
65127;BME280;51927;49.080;19.652;2023-01-04T00:19:30;95575.50;;;22.37;45.46
65127;BME280;51927;49.080;19.652;2023-01-04T00:19:35;95581.63;;;22.37;45.54
65127;BME280;51927;49.080;19.652;2023-01-04T00:19:40;95580.06;;;22.36;45.74
65127;BME280;51927;49.080;19.652;2023-01-04T00:19:45;95575.50;;;22.37;45.75
65127;BME280;51927;49.080;19.652;2023-01-04T00:19:51;95581.63;;;22.37;45.88
65127;BME280;51927;49.080;19.652;2023-01-04T00:19:56;95578.16;;;22.37;45.83
65127;BME280;51927;49.080;19.652;2023-01-04T00:20:01;95576.28;;;22.37;45.62
65127;BME280;51927;49.080;19.652;2023-01-04T00:20:06;95572.84;;;22.37;45.61
65127;BME280;51927;49.080;19.652;2023-01-04T00:20:12;95578.97;;;22.37;45.73
65127;BME280;51927;49.080;19.652;2023-01-04T00:20:17;95581.63;;;22.37;45.66
65127;BME280;51927;49.080;19.652;2023-01-04T00:20:22;95581.63;;;22.37;45.87
65127;BME280;51927;49.080;19.652;2023-01-04T00:20:27;95577.09;;;22.38;45.88
65127;BME280;51927;49.080;19.652;2023-01-04T00:20:33;95576.28;;;22.37;45.93
65127;BME280;51927;49.080;19.652;2023-01-04T00:20:38;95580.06;;;22.36;45.65
65127;BME280;51927;49.080;19.652;2023-01-04T00:20:43;95574.44;;;22.38;45.68
65127;BME280;51927;49.080;19.652;2023-01-04T00:20:48;95574.44;;;22.38;45.90
65127;BME280;51927;49.080;19.652;2023-01-04T00:20:53;95582.44;;;22.38;45.81
65127;BME280;51927;49.080;19.652;2023-01-04T00:21:08;95581.63;;;22.37;45.93
65127;BME280;51927;49.080;19.652;2023-01-04T00:21:17;95576.28;;;22.37;45.85
65127;BME280;51927;49.080;19.652;2023-01-04T00:21:27;95579.78;;;22.38;45.74
65127;BME280;51927;49.080;19.652;2023-01-04T00:21:33;95575.50;;;22.37;45.82
65127;BME280;51927;49.080;19.652;2023-01-04T00:21:38;95580.56;;;22.38;45.67
65127;BME280;51927;49.080;19.652;2023-01-04T00:21:43;95581.63;;;22.37;45.79
65127;BME280;51927;49.080;19.652;2023-01-04T00:21:48;95584.00;;;22.39;45.78
65127;BME280;51927;49.080;19.652;2023-01-04T00:21:53;95578.97;;;22.37;45.81
65127;BME280;51927;49.080;19.652;2023-01-04T00:21:59;95576.00;;;22.39;45.68
65127;BME280;51927;49.080;19.652;2023-01-04T00:22:04;95578.69;;;22.39;45.83
65127;BME280;51927;49.080;19.652;2023-01-04T00:22:09;95577.91;;;22.38;45.80
65127;BME280;51927;49.080;19.652;2023-01-04T00:22:14;95579.78;;;22.38;45.85
65127;BME280;51927;49.080;19.652;2023-01-04T00:22:19;95578.69;;;22.39;45.79
65127;BME280;51927;49.080;19.652;2023-01-04T00:22:24;95582.44;;;22.38;45.65
65127;BME280;51927;49.080;19.652;2023-01-04T00:22:33;95581.34;;;22.39;45.80
65127;BME280;51927;49.080;19.652;2023-01-04T00:22:38;95583.22;;;22.38;45.88
65127;BME280;51927;49.080;19.652;2023-01-04T00:22:43;95581.34;;;22.39;45.67
65127;BME280;51927;49.080;19.652;2023-01-04T00:22:49;95578.97;;;22.37;45.79
65127;BME280;51927;49.080;19.652;2023-01-04T00:22:54;95583.22;;;22.38;45.94
65127;BME280;51927;49.080;19.652;2023-01-04T00:22:59;95577.09;;;22.38;45.63
65127;BME280;51927;49.080;19.652;2023-01-04T00:23:04;95580.56;;;22.38;45.74
65127;BME280;51927;49.080;19.652;2023-01-04T00:23:09;95582.44;;;22.38;46.00
65127;BME280;51927;49.080;19.652;2023-01-04T00:23:14;95583.22;;;22.38;45.73
65127;BME280;51927;49.080;19.652;2023-01-04T00:23:20;95583.22;;;22.38;45.74
65127;BME280;51927;49.080;19.652;2023-01-04T00:23:25;95582.44;;;22.38;45.96
65127;BME280;51927;49.080;19.652;2023-01-04T00:23:30;95586.97;;;22.37;45.87
65127;BME280;51927;49.080;19.652;2023-01-04T00:23:36;95581.63;;;22.37;45.66
65127;BME280;51927;49.080;19.652;2023-01-04T00:23:42;95584.28;;;22.37;45.89
65127;BME280;51927;49.080;19.652;2023-01-04T00:23:48;95587.78;;;22.38;45.61
65127;BME280;51927;49.080;19.652;2023-01-04T00:23:55;95581.34;;;22.39;45.70
65127;BME280;51927;49.080;19.652;2023-01-04T00:24:00;95586.19;;;22.37;45.76
65127;BME280;51927;49.080;19.652;2023-01-04T00:24:05;95577.09;;;22.38;45.74
65127;BME280;51927;49.080;19.652;2023-01-04T00:24:11;95587.78;;;22.38;45.96
65127;BME280;51927;49.080;19.652;2023-01-04T00:24:19;95582.44;;;22.38;45.70
65127;BME280;51927;49.080;19.652;2023-01-04T00:24:24;95584.00;;;22.39;45.67
65127;BME280;51927;49.080;19.652;2023-01-04T00:24:29;95581.63;;;22.37;45.77
65127;BME280;51927;49.080;19.652;2023-01-04T00:24:34;95587.78;;;22.38;45.73
65127;BME280;51927;49.080;19.652;2023-01-04T00:24:39;95585.13;;;22.38;45.77
65127;BME280;51927;49.080;19.652;2023-01-04T00:24:45;95583.22;;;22.38;45.73
65127;BME280;51927;49.080;19.652;2023-01-04T00:24:50;95584.00;;;22.39;45.79
65127;BME280;51927;49.080;19.652;2023-01-04T00:24:55;95583.22;;;22.38;45.65
65127;BME280;51927;49.080;19.652;2023-01-04T00:25:00;95583.22;;;22.38;45.81
65127;BME280;51927;49.080;19.652;2023-01-04T00:25:05;95585.91;;;22.38;45.77
65127;BME280;51927;49.080;19.652;2023-01-04T00:25:11;95585.91;;;22.38;45.70
65127;BME280;51927;49.080;19.652;2023-01-04T00:25:16;95585.13;;;22.38;45.83
65127;BME280;51927;49.080;19.652;2023-01-04T00:25:21;95588.56;;;22.38;45.64
65127;BME280;51927;49.080;19.652;2023-01-04T00:25:26;95588.56;;;22.38;45.66
65127;BME280;51927;49.080;19.652;2023-01-04T00:25:31;95584.00;;;22.39;45.60
65127;BME280;51927;49.080;19.652;2023-01-04T00:25:37;95584.00;;;22.39;45.66
65127;BME280;51927;49.080;19.652;2023-01-04T00:25:42;95587.78;;;22.38;45.86
65127;BME280;51927;49.080;19.652;2023-01-04T00:25:47;95585.13;;;22.38;45.92
65127;BME280;51927;49.080;19.652;2023-01-04T00:25:53;95582.44;;;22.38;45.73
65127;BME280;51927;49.080;19.652;2023-01-04T00:25:58;95585.13;;;22.38;46.00
65127;BME280;51927;49.080;19.652;2023-01-04T00:26:09;95587.78;;;22.38;45.67
65127;BME280;51927;49.080;19.652;2023-01-04T00:26:16;95582.44;;;22.38;45.96
65127;BME280;51927;49.080;19.652;2023-01-04T00:26:24;95582.44;;;22.38;45.80
65127;BME280;51927;49.080;19.652;2023-01-04T00:26:30;95585.13;;;22.38;45.80
65127;BME280;51927;49.080;19.652;2023-01-04T00:26:36;95589.34;;;22.39;45.81
65127;BME280;51927;49.080;19.652;2023-01-04T00:26:41;95592.03;;;22.39;45.84
65127;BME280;51927;49.080;19.652;2023-01-04T00:26:46;95586.97;;;22.37;45.98
65127;BME280;51927;49.080;19.652;2023-01-04T00:26:52;95588.56;;;22.38;45.83
65127;BME280;51927;49.080;19.652;2023-01-04T00:26:57;95587.78;;;22.38;45.64
65127;BME280;51927;49.080;19.652;2023-01-04T00:27:02;95588.56;;;22.38;45.87
65127;BME280;51927;49.080;19.652;2023-01-04T00:27:07;95587.78;;;22.38;45.99
65127;BME280;51927;49.080;19.652;2023-01-04T00:27:12;95583.22;;;22.38;45.78
65127;BME280;51927;49.080;19.652;2023-01-04T00:27:18;95588.56;;;22.38;45.66
65127;BME280;51927;49.080;19.652;2023-01-04T00:27:23;95587.78;;;22.38;45.61
65127;BME280;51927;49.080;19.652;2023-01-04T00:27:28;95593.13;;;22.38;45.72
65127;BME280;51927;49.080;19.652;2023-01-04T00:27:33;95591.25;;;22.38;45.80
65127;BME280;51927;49.080;19.652;2023-01-04T00:27:38;95592.31;;;22.37;45.67
65127;BME280;51927;49.080;19.652;2023-01-04T00:27:44;95590.16;;;22.39;45.70
65127;BME280;51927;49.080;19.652;2023-01-04T00:27:49;95586.97;;;22.37;45.79
65127;BME280;51927;49.080;19.652;2023-01-04T00:27:55;95588.56;;;22.38;45.88
65127;BME280;51927;49.080;19.652;2023-01-04T00:28:00;95593.13;;;22.38;45.96
65127;BME280;51927;49.080;19.652;2023-01-04T00:28:05;95589.63;;;22.37;45.93
65127;BME280;51927;49.080;19.652;2023-01-04T00:28:11;95591.25;;;22.38;45.92
65127;BME280;51927;49.080;19.652;2023-01-04T00:28:16;95593.13;;;22.38;45.90
65127;BME280;51927;49.080;19.652;2023-01-04T00:28:21;95587.78;;;22.38;45.93
65127;BME280;51927;49.080;19.652;2023-01-04T00:28:26;95585.91;;;22.38;45.71
65127;BME280;51927;49.080;19.652;2023-01-04T00:28:32;95588.56;;;22.38;45.58
65127;BME280;51927;49.080;19.652;2023-01-04T00:28:37;95593.91;;;22.38;46.01
65127;BME280;51927;49.080;19.652;2023-01-04T00:28:42;95592.03;;;22.39;45.98
65127;BME280;51927;49.080;19.652;2023-01-04T00:28:47;95591.25;;;22.38;46.12